Terminal Aerodrome Forecast
Issued by NWS Louisville, KY

Home | Current Version | Previous Version | Text Only | Print | Product List | Glossary On
Versions: 1 2 3 4 5 6 7 8 9 10 11 12 13
000
FTUS43 KLMK 272300
TAFBWG
TAF
KBWG 272326Z 2800/2824 22004KT 4SM -RA BR BKN015
     FM280400 VRB04KT 4SM -RA BR BKN008
     FM280800 30005KT 3SM -RA BR OVC008
     FM282300 35004KT P6SM OVC035=

USA.gov is the U.S. government's official web portal to all federal, state and local government web resources and services.